Portada
METAR-TAF:

METAR-TAF

Aeroports :

Aeroport de Svalbard-Longyear

Longyearbyen, Noruega

latitud: 78-15N, longitud: 015-28E, altitud: 2 m

Observació

L'informe es va fer fa 51 minuts, a les 23:50 UTC
Vent 13 kt del Est
Temperatura -18°C
Humitat 65%
Pressió 1002 hPa
Visibilitat 10 km o més
Núvols disperses a una alçada de 2000 ft
Cel ennuvolat a una alçada de 6000 ft

METAR: ENSB 032350Z 10013KT 9999 SCT020 BKN060 M18/M23 Q1002 RMK WIND 1400FT 10017KT

Hora: 02:41 (00:41 UTC)

Pronòstic

Pronòstic vàlid del 04 a les 00 UTC al 04 a les 24 UTC
Vent 12 kt del Est/Sud-Est
Visibilitat 10 km o més
Escasses núvols a una alçada de 200 ft
Núvols disperses a una alçada de 4500 ft
Temporalment
l' 04 a les 10 UTC al 04 a les 24 UTC
Vent 20 kt del Nord-Est
Temporalment
l' 04 a les 18 UTC al 04 a les 24 UTC
Visibilitat: 4000 m
a una alçada de 1200 ft
torb baixa de neu, neu

TAF: ENSB 0400/0424 12012KT 9999 FEW002 SCT045 TEMPO 0410/0424 05020KT TEMPO 0418/0424 4000 DRSN -SN VV012

Observacions i pronòstics meteorològics de més de 4000 aeroports (METAR i TAF).

Les estacions disponibles són els punts grocs i vermells al mapa.

Posi el ratolí al punt desitjat per veure el nom de l'estació.

Feu clic per veure les observacions i els pronòstics meteorològics.

Per canviar el mapa: feu clic els botons verds amb una creu de color negre per apropar; al botó verd amb un guió per allunyar la imatge; o en les fletxes verdes per a mapes adjacents.


METAR-TAF: